sensor_id;sensor_type;location;lat;lon;timestamp;pressure;altitude;pressure_sealevel;temperature;humidity
55191;BME280;41070;50.360;18.742;2023-10-31T05:28:34;96870.37;;;15.91;69.74
55191;BME280;41070;50.360;18.742;2023-10-31T05:31:01;96870.17;;;15.87;69.83
55191;BME280;41070;50.360;18.742;2023-10-31T05:33:27;96869.60;;;15.85;69.67
55191;BME280;41070;50.360;18.742;2023-10-31T05:35:57;96874.23;;;15.84;69.77
55191;BME280;41070;50.360;18.742;2023-10-31T05:38:24;96875.25;;;15.84;69.65
55191;BME280;41070;50.360;18.742;2023-10-31T05:40:50;96876.23;;;15.81;69.86
55191;BME280;41070;50.360;18.742;2023-10-31T05:43:16;96873.79;;;15.80;69.85
55191;BME280;41070;50.360;18.742;2023-10-31T05:45:42;96871.70;;;15.80;69.98
55191;BME280;41070;50.360;18.742;2023-10-31T05:48:09;96874.50;;;15.79;69.86
55191;BME280;41070;50.360;18.742;2023-10-31T05:50:35;96868.77;;;15.80;69.44
55191;BME280;41070;50.360;18.742;2023-10-31T05:53:01;96871.81;;;15.82;69.80
55191;BME280;41070;50.360;18.742;2023-10-31T05:55:27;96872.48;;;15.80;69.84
55191;BME280;41070;50.360;18.742;2023-10-31T05:57:54;96876.58;;;15.79;69.66
55191;BME280;41070;50.360;18.742;2023-10-31T06:00:20;96877.98;;;15.79;69.51
55191;BME280;41070;50.360;18.742;2023-10-31T06:02:46;96878.20;;;15.79;69.57
55191;BME280;41070;50.360;18.742;2023-10-31T06:05:12;96887.98;;;15.78;69.86
55191;BME280;41070;50.360;18.742;2023-10-31T06:07:39;96899.13;;;15.76;70.05
55191;BME280;41070;50.360;18.742;2023-10-31T06:10:05;96904.56;;;15.74;70.06
55191;BME280;41070;50.360;18.742;2023-10-31T06:12:32;96904.66;;;15.73;69.81
55191;BME280;41070;50.360;18.742;2023-10-31T06:14:58;96910.83;;;15.73;69.79
55191;BME280;41070;50.360;18.742;2023-10-31T06:17:24;96910.80;;;15.74;69.72
55191;BME280;41070;50.360;18.742;2023-10-31T06:19:51;96913.66;;;15.78;69.15
55191;BME280;41070;50.360;18.742;2023-10-31T06:22:18;96916.70;;;15.80;69.32
55191;BME280;41070;50.360;18.742;2023-10-31T06:24:45;96919.89;;;15.82;68.96
55191;BME280;41070;50.360;18.742;2023-10-31T06:27:11;96923.47;;;15.84;68.83
55191;BME280;41070;50.360;18.742;2023-10-31T06:29:38;96928.46;;;15.85;69.09
55191;BME280;41070;50.360;18.742;2023-10-31T06:32:04;96932.29;;;15.86;69.16
55191;BME280;41070;50.360;18.742;2023-10-31T06:34:31;96935.92;;;15.89;69.36
55191;BME280;41070;50.360;18.742;2023-10-31T06:37:00;96937.20;;;15.91;69.35
55191;BME280;41070;50.360;18.742;2023-10-31T06:39:26;96928.38;;;15.92;69.14
55191;BME280;41070;50.360;18.742;2023-10-31T06:41:55;96932.58;;;15.98;69.67
55191;BME280;41070;50.360;18.742;2023-10-31T06:44:23;96932.93;;;16.07;69.36
55191;BME280;41070;50.360;18.742;2023-10-31T06:46:49;96943.76;;;16.19;69.10
55191;BME280;41070;50.360;18.742;2023-10-31T06:49:15;96943.80;;;16.24;69.35
55191;BME280;41070;50.360;18.742;2023-10-31T06:51:42;96937.91;;;16.26;69.27
55191;BME280;41070;50.360;18.742;2023-10-31T06:54:08;96947.80;;;16.28;69.39
55191;BME280;41070;50.360;18.742;2023-10-31T06:56:34;96950.63;;;16.27;69.60
55191;BME280;41070;50.360;18.742;2023-10-31T06:59:00;96957.32;;;16.27;69.38
55191;BME280;41070;50.360;18.742;2023-10-31T07:01:35;96954.15;;;16.27;69.28
55191;BME280;41070;50.360;18.742;2023-10-31T07:04:02;96948.38;;;16.27;68.91
55191;BME280;41070;50.360;18.742;2023-10-31T07:06:28;96954.66;;;16.25;68.90
55191;BME280;41070;50.360;18.742;2023-10-31T07:08:54;96961.11;;;16.26;68.75
55191;BME280;41070;50.360;18.742;2023-10-31T07:11:21;96963.80;;;16.23;68.75
55191;BME280;41070;50.360;18.742;2023-10-31T07:13:47;96971.73;;;16.24;68.67
55191;BME280;41070;50.360;18.742;2023-10-31T07:16:13;96972.91;;;16.22;68.76
55191;BME280;41070;50.360;18.742;2023-10-31T07:18:39;96980.84;;;16.19;68.98
55191;BME280;41070;50.360;18.742;2023-10-31T07:21:05;96983.59;;;16.17;68.94
55191;BME280;41070;50.360;18.742;2023-10-31T07:23:32;96991.23;;;16.16;68.85
55191;BME280;41070;50.360;18.742;2023-10-31T07:25:58;97003.16;;;16.14;69.24
55191;BME280;41070;50.360;18.742;2023-10-31T07:28:24;97005.77;;;16.11;69.30
55191;BME280;41070;50.360;18.742;2023-10-31T07:30:50;97003.15;;;16.10;68.91
55191;BME280;41070;50.360;18.742;2023-10-31T07:33:16;97011.27;;;16.09;69.20
55191;BME280;41070;50.360;18.742;2023-10-31T07:35:43;97007.69;;;16.07;69.26
55191;BME280;41070;50.360;18.742;2023-10-31T07:38:09;97019.92;;;16.04;69.61
55191;BME280;41070;50.360;18.742;2023-10-31T07:40:36;97024.23;;;16.00;69.86
55191;BME280;41070;50.360;18.742;2023-10-31T07:43:02;97024.60;;;15.98;69.93
55191;BME280;41070;50.360;18.742;2023-10-31T07:45:28;97030.30;;;15.94;70.03
55191;BME280;41070;50.360;18.742;2023-10-31T07:47:54;97033.60;;;15.91;69.88
55191;BME280;41070;50.360;18.742;2023-10-31T07:50:21;97035.31;;;15.90;69.29
55191;BME280;41070;50.360;18.742;2023-10-31T07:52:47;97037.49;;;15.89;68.83
55191;BME280;41070;50.360;18.742;2023-10-31T07:55:26;97034.21;;;15.87;68.65
55191;BME280;41070;50.360;18.742;2023-10-31T07:57:52;97039.27;;;15.84;68.68
55191;BME280;41070;50.360;18.742;2023-10-31T08:00:19;97049.29;;;15.80;69.16
55191;BME280;41070;50.360;18.742;2023-10-31T08:02:45;97053.13;;;15.76;69.10
55191;BME280;41070;50.360;18.742;2023-10-31T08:05:11;97062.41;;;15.73;68.93
55191;BME280;41070;50.360;18.742;2023-10-31T08:07:38;97057.05;;;15.70;69.01
55191;BME280;41070;50.360;18.742;2023-10-31T08:10:04;97061.13;;;15.67;69.32
55191;BME280;41070;50.360;18.742;2023-10-31T08:12:30;97071.48;;;15.64;69.48
55191;BME280;41070;50.360;18.742;2023-10-31T08:14:57;97073.92;;;15.62;69.60
55191;BME280;41070;50.360;18.742;2023-10-31T08:17:24;97077.90;;;15.59;69.79
55191;BME280;41070;50.360;18.742;2023-10-31T08:19:50;97085.56;;;15.56;69.86
55191;BME280;41070;50.360;18.742;2023-10-31T08:22:16;97088.65;;;15.56;69.88
55191;BME280;41070;50.360;18.742;2023-10-31T08:24:42;97089.02;;;15.52;70.14
55191;BME280;41070;50.360;18.742;2023-10-31T08:27:09;97094.67;;;15.51;70.53
55191;BME280;41070;50.360;18.742;2023-10-31T08:29:36;97094.86;;;15.49;70.65
55191;BME280;41070;50.360;18.742;2023-10-31T08:32:05;97089.63;;;15.49;70.94
55191;BME280;41070;50.360;18.742;2023-10-31T08:34:34;97093.95;;;15.49;71.23
55191;BME280;41070;50.360;18.742;2023-10-31T08:37:00;97102.31;;;15.50;71.29
55191;BME280;41070;50.360;18.742;2023-10-31T08:39:26;97099.69;;;15.50;71.51
55191;BME280;41070;50.360;18.742;2023-10-31T08:41:53;97104.41;;;15.49;72.01
55191;BME280;41070;50.360;18.742;2023-10-31T08:44:20;97104.64;;;15.49;72.17
55191;BME280;41070;50.360;18.742;2023-10-31T08:46:46;97110.86;;;15.50;72.38
55191;BME280;41070;50.360;18.742;2023-10-31T08:49:13;97114.06;;;15.52;72.69
55191;BME280;41070;50.360;18.742;2023-10-31T08:51:48;97118.06;;;15.52;73.21
55191;BME280;41070;50.360;18.742;2023-10-31T08:54:15;97118.48;;;15.50;73.38
55191;BME280;41070;50.360;18.742;2023-10-31T08:56:45;97122.86;;;15.46;74.17
55191;BME280;41070;50.360;18.742;2023-10-31T08:59:14;97126.00;;;15.42;74.56
55191;BME280;41070;50.360;18.742;2023-10-31T09:01:40;97127.04;;;15.39;74.99
55191;BME280;41070;50.360;18.742;2023-10-31T09:04:06;97123.02;;;15.41;75.24
55191;BME280;41070;50.360;18.742;2023-10-31T09:10:02;97127.45;;;15.52;75.92
55191;BME280;41070;50.360;18.742;2023-10-31T09:19:18;97141.55;;;15.72;77.03
55191;BME280;41070;50.360;18.742;2023-10-31T09:21:45;97150.77;;;15.73;77.20
55191;BME280;41070;50.360;18.742;2023-10-31T09:24:38;97148.84;;;15.75;77.47
55191;BME280;41070;50.360;18.742;2023-10-31T09:27:12;97153.61;;;15.74;77.85
55191;BME280;41070;50.360;18.742;2023-10-31T09:29:41;97168.88;;;15.74;77.71
55191;BME280;41070;50.360;18.742;2023-10-31T09:39:15;97178.05;;;15.78;78.09
55191;BME280;41070;50.360;18.742;2023-10-31T09:48:49;97186.84;;;15.87;78.63
55191;BME280;41070;50.360;18.742;2023-10-31T09:54:12;97192.02;;;15.91;78.38
55191;BME280;41070;50.360;18.742;2023-10-31T09:57:09;97197.35;;;15.94;79.08
55191;BME280;41070;50.360;18.742;2023-10-31T10:00:03;97202.80;;;15.96;78.63
55191;BME280;41070;50.360;18.742;2023-10-31T10:03:17;97207.06;;;15.93;78.84
55191;BME280;41070;50.360;18.742;2023-10-31T10:06:08;97206.92;;;15.93;79.25
55191;BME280;41070;50.360;18.742;2023-10-31T10:08:57;97198.13;;;15.95;79.05
55191;BME280;41070;50.360;18.742;2023-10-31T10:11:32;97198.39;;;15.97;79.14
55191;BME280;41070;50.360;18.742;2023-10-31T10:21:52;97190.11;;;15.90;79.49
55191;BME280;41070;50.360;18.742;2023-10-31T10:30:56;97183.80;;;16.03;79.20
55191;BME280;41070;50.360;18.742;2023-10-31T10:33:46;97178.46;;;16.04;79.21
55191;BME280;41070;50.360;18.742;2023-10-31T10:37:03;97181.39;;;16.13;79.20
55191;BME280;41070;50.360;18.742;2023-10-31T10:39:11;97175.56;;;16.37;79.01
55191;BME280;41070;50.360;18.742;2023-10-31T10:41:39;97186.02;;;16.62;78.71
55191;BME280;41070;50.360;18.742;2023-10-31T10:44:30;97194.77;;;16.73;78.17
55191;BME280;41070;50.360;18.742;2023-10-31T10:50:10;97197.84;;;16.73;77.51
55191;BME280;41070;50.360;18.742;2023-10-31T10:56:07;97183.94;;;16.66;77.17
55191;BME280;41070;50.360;18.742;2023-10-31T10:59:01;97182.48;;;16.69;76.80
55191;BME280;41070;50.360;18.742;2023-10-31T11:01:45;97184.27;;;16.72;76.68
55191;BME280;41070;50.360;18.742;2023-10-31T11:04:13;97187.67;;;16.72;76.92
55191;BME280;41070;50.360;18.742;2023-10-31T11:06:54;97193.29;;;16.73;77.03
55191;BME280;41070;50.360;18.742;2023-10-31T11:09:24;97190.26;;;16.70;77.06
55191;BME280;41070;50.360;18.742;2023-10-31T11:17:53;97207.35;;;16.41;77.25
55191;BME280;41070;50.360;18.742;2023-10-31T11:20:30;97210.30;;;16.35;76.78
55191;BME280;41070;50.360;18.742;2023-10-31T11:23:05;97210.87;;;16.25;76.93
55191;BME280;41070;50.360;18.742;2023-10-31T11:25:42;97208.17;;;16.20;77.27
55191;BME280;41070;50.360;18.742;2023-10-31T11:28:17;97204.42;;;16.14;77.39
55191;BME280;41070;50.360;18.742;2023-10-31T11:31:11;97203.76;;;16.08;77.74
55191;BME280;41070;50.360;18.742;2023-10-31T11:33:41;97199.67;;;16.08;78.46
55191;BME280;41070;50.360;18.742;2023-10-31T11:36:09;97195.61;;;16.15;78.36
55191;BME280;41070;50.360;18.742;2023-10-31T11:38:54;97192.49;;;16.21;78.14
55191;BME280;41070;50.360;18.742;2023-10-31T11:41:49;97193.16;;;16.31;78.44
55191;BME280;41070;50.360;18.742;2023-10-31T11:44:17;97205.44;;;16.39;78.46
55191;BME280;41070;50.360;18.742;2023-10-31T11:46:44;97203.23;;;16.45;78.35
55191;BME280;41070;50.360;18.742;2023-10-31T11:52:27;97206.03;;;16.45;78.60
55191;BME280;41070;50.360;18.742;2023-10-31T11:55:20;97201.25;;;16.41;78.79
55191;BME280;41070;50.360;18.742;2023-10-31T11:57:47;97196.73;;;16.39;79.02
55191;BME280;41070;50.360;18.742;2023-10-31T12:00:21;97199.36;;;16.34;79.00
55191;BME280;41070;50.360;18.742;2023-10-31T12:03:02;97200.17;;;16.32;79.06
55191;BME280;41070;50.360;18.742;2023-10-31T12:05:30;97197.72;;;16.30;79.08
55191;BME280;41070;50.360;18.742;2023-10-31T12:08:02;97196.88;;;16.26;79.10
55191;BME280;41070;50.360;18.742;2023-10-31T12:10:30;97195.33;;;16.22;79.13
55191;BME280;41070;50.360;18.742;2023-10-31T12:13:02;97197.59;;;16.16;79.43
55191;BME280;41070;50.360;18.742;2023-10-31T12:16:10;97199.66;;;16.13;79.13
55191;BME280;41070;50.360;18.742;2023-10-31T12:19:03;97191.73;;;16.08;79.32
55191;BME280;41070;50.360;18.742;2023-10-31T12:24:26;97176.93;;;16.03;79.80
55191;BME280;41070;50.360;18.742;2023-10-31T12:27:15;97170.75;;;16.00;79.64
55191;BME280;41070;50.360;18.742;2023-10-31T12:29:42;97163.27;;;15.95;79.73
55191;BME280;41070;50.360;18.742;2023-10-31T12:32:11;97166.67;;;15.91;79.84
55191;BME280;41070;50.360;18.742;2023-10-31T12:34:57;97164.19;;;15.92;80.33
55191;BME280;41070;50.360;18.742;2023-10-31T12:37:24;97151.74;;;15.89;80.30
55191;BME280;41070;50.360;18.742;2023-10-31T12:42:58;97160.02;;;15.92;80.14
55191;BME280;41070;50.360;18.742;2023-10-31T12:45:26;97173.64;;;15.89;80.22
55191;BME280;41070;50.360;18.742;2023-10-31T12:48:02;97167.98;;;15.82;80.27
55191;BME280;41070;50.360;18.742;2023-10-31T12:50:31;97176.17;;;15.75;80.52
55191;BME280;41070;50.360;18.742;2023-10-31T12:52:58;97173.72;;;15.68;80.60
55191;BME280;41070;50.360;18.742;2023-10-31T12:55:27;97179.34;;;15.59;80.60
55191;BME280;41070;50.360;18.742;2023-10-31T12:57:59;97185.54;;;15.51;80.92
55191;BME280;41070;50.360;18.742;2023-10-31T13:00:43;97192.30;;;15.42;80.90
55191;BME280;41070;50.360;18.742;2023-10-31T13:03:13;97184.48;;;15.34;81.19
55191;BME280;41070;50.360;18.742;2023-10-31T13:05:44;97178.11;;;15.27;81.25
55191;BME280;41070;50.360;18.742;2023-10-31T13:08:15;97176.09;;;15.24;81.70
55191;BME280;41070;50.360;18.742;2023-10-31T13:10:43;97185.83;;;15.21;81.69
55191;BME280;41070;50.360;18.742;2023-10-31T13:13:13;97191.88;;;15.18;82.13
55191;BME280;41070;50.360;18.742;2023-10-31T13:15:40;97202.35;;;15.16;82.15
55191;BME280;41070;50.360;18.742;2023-10-31T13:18:08;97210.15;;;15.15;82.60
55191;BME280;41070;50.360;18.742;2023-10-31T13:20:38;97207.70;;;15.13;82.85
55191;BME280;41070;50.360;18.742;2023-10-31T13:23:07;97213.02;;;15.13;82.77
55191;BME280;41070;50.360;18.742;2023-10-31T13:25:35;97219.89;;;15.12;82.72
55191;BME280;41070;50.360;18.742;2023-10-31T13:28:02;97217.25;;;15.08;82.82
55191;BME280;41070;50.360;18.742;2023-10-31T13:33:37;97224.52;;;14.99;82.74
55191;BME280;41070;50.360;18.742;2023-10-31T13:36:05;97232.27;;;14.94;82.89
55191;BME280;41070;50.360;18.742;2023-10-31T13:38:37;97239.63;;;14.90;83.05
55191;BME280;41070;50.360;18.742;2023-10-31T13:41:04;97242.54;;;14.85;82.93
55191;BME280;41070;50.360;18.742;2023-10-31T13:43:33;97239.39;;;14.79;83.02
55191;BME280;41070;50.360;18.742;2023-10-31T13:46:15;97236.33;;;14.69;83.27
55191;BME280;41070;50.360;18.742;2023-10-31T13:48:46;97237.02;;;14.62;83.18
55191;BME280;41070;50.360;18.742;2023-10-31T13:51:14;97239.98;;;14.56;83.45
55191;BME280;41070;50.360;18.742;2023-10-31T13:53:41;97235.80;;;14.51;83.49
55191;BME280;41070;50.360;18.742;2023-10-31T13:56:07;97230.09;;;14.46;84.11
55191;BME280;41070;50.360;18.742;2023-10-31T13:58:34;97221.98;;;14.43;84.34
55191;BME280;41070;50.360;18.742;2023-10-31T14:01:00;97220.52;;;14.41;84.61
55191;BME280;41070;50.360;18.742;2023-10-31T14:03:26;97232.38;;;14.39;85.02
55191;BME280;41070;50.360;18.742;2023-10-31T14:05:53;97241.10;;;14.37;85.19
55191;BME280;41070;50.360;18.742;2023-10-31T14:08:20;97245.35;;;14.35;85.42
55191;BME280;41070;50.360;18.742;2023-10-31T14:10:46;97251.36;;;14.33;85.38
55191;BME280;41070;50.360;18.742;2023-10-31T14:13:14;97258.41;;;14.28;85.08
55191;BME280;41070;50.360;18.742;2023-10-31T14:15:41;97260.77;;;14.22;85.49
55191;BME280;41070;50.360;18.742;2023-10-31T14:18:21;97266.04;;;14.18;85.69
55191;BME280;41070;50.360;18.742;2023-10-31T14:20:51;97269.98;;;14.13;85.45
55191;BME280;41070;50.360;18.742;2023-10-31T14:23:26;97274.04;;;14.06;85.79
55191;BME280;41070;50.360;18.742;2023-10-31T14:25:55;97278.70;;;14.00;86.18
55191;BME280;41070;50.360;18.742;2023-10-31T14:28:22;97278.42;;;13.94;86.34
55191;BME280;41070;50.360;18.742;2023-10-31T14:30:48;97279.48;;;13.90;86.18
55191;BME280;41070;50.360;18.742;2023-10-31T14:33:14;97279.45;;;13.82;86.41
55191;BME280;41070;50.360;18.742;2023-10-31T14:35:40;97282.48;;;13.76;86.62
55191;BME280;41070;50.360;18.742;2023-10-31T14:41:32;97286.02;;;13.64;87.31
55191;BME280;41070;50.360;18.742;2023-10-31T14:44:00;97286.34;;;13.60;87.84
55191;BME280;41070;50.360;18.742;2023-10-31T14:46:27;97288.73;;;13.58;88.24
55191;BME280;41070;50.360;18.742;2023-10-31T14:48:53;97284.53;;;13.55;88.37
55191;BME280;41070;50.360;18.742;2023-10-31T14:51:19;97283.17;;;13.51;88.78
55191;BME280;41070;50.360;18.742;2023-10-31T14:53:45;97288.02;;;13.50;89.08
55191;BME280;41070;50.360;18.742;2023-10-31T14:56:15;97293.55;;;13.49;89.60
55191;BME280;41070;50.360;18.742;2023-10-31T14:58:41;97287.71;;;13.47;90.01
55191;BME280;41070;50.360;18.742;2023-10-31T15:01:08;97283.20;;;13.47;90.20
55191;BME280;41070;50.360;18.742;2023-10-31T15:03:34;97282.81;;;13.46;90.40
55191;BME280;41070;50.360;18.742;2023-10-31T15:06:02;97281.83;;;13.46;90.15
55191;BME280;41070;50.360;18.742;2023-10-31T15:08:29;97280.61;;;13.45;90.48
55191;BME280;41070;50.360;18.742;2023-10-31T15:10:55;97288.20;;;13.45;90.82
55191;BME280;41070;50.360;18.742;2023-10-31T15:13:21;97284.05;;;13.47;91.27
55191;BME280;41070;50.360;18.742;2023-10-31T15:15:48;97284.95;;;13.49;91.26
55191;BME280;41070;50.360;18.742;2023-10-31T15:18:14;97287.23;;;13.52;91.56
55191;BME280;41070;50.360;18.742;2023-10-31T15:20:40;97290.83;;;13.54;91.78
55191;BME280;41070;50.360;18.742;2023-10-31T15:23:07;97292.83;;;13.55;92.06
55191;BME280;41070;50.360;18.742;2023-10-31T15:25:33;97290.54;;;13.53;92.21
55191;BME280;41070;50.360;18.742;2023-10-31T15:28:08;97296.61;;;13.51;92.40
55191;BME280;41070;50.360;18.742;2023-10-31T15:30:36;97305.27;;;13.54;92.35
55191;BME280;41070;50.360;18.742;2023-10-31T15:33:02;97308.02;;;13.55;92.48
55191;BME280;41070;50.360;18.742;2023-10-31T15:35:28;97309.41;;;13.55;92.41
55191;BME280;41070;50.360;18.742;2023-10-31T15:37:54;97299.66;;;13.55;92.51
55191;BME280;41070;50.360;18.742;2023-10-31T15:40:20;97295.05;;;13.55;92.67
55191;BME280;41070;50.360;18.742;2023-10-31T15:42:49;97297.21;;;13.54;92.97
55191;BME280;41070;50.360;18.742;2023-10-31T15:45:15;97299.75;;;13.52;93.14
55191;BME280;41070;50.360;18.742;2023-10-31T15:47:47;97298.45;;;13.50;93.60
55191;BME280;41070;50.360;18.742;2023-10-31T15:50:14;97296.08;;;13.51;93.67
55191;BME280;41070;50.360;18.742;2023-10-31T15:52:40;97292.16;;;13.48;93.68
55191;BME280;41070;50.360;18.742;2023-10-31T15:55:06;97293.73;;;13.45;93.80
55191;BME280;41070;50.360;18.742;2023-10-31T15:57:32;97294.65;;;13.43;93.95
55191;BME280;41070;50.360;18.742;2023-10-31T15:59:59;97302.85;;;13.47;94.17
55191;BME280;41070;50.360;18.742;2023-10-31T16:02:25;97309.20;;;13.53;94.25
55191;BME280;41070;50.360;18.742;2023-10-31T16:04:51;97310.50;;;13.53;94.22
55191;BME280;41070;50.360;18.742;2023-10-31T16:07:18;97310.40;;;13.55;94.28
55191;BME280;41070;50.360;18.742;2023-10-31T16:09:45;97312.76;;;13.60;94.24
55191;BME280;41070;50.360;18.742;2023-10-31T16:12:12;97319.27;;;13.62;94.22
55191;BME280;41070;50.360;18.742;2023-10-31T16:14:38;97319.73;;;13.64;93.89
55191;BME280;41070;50.360;18.742;2023-10-31T16:17:04;97321.35;;;13.61;93.69
55191;BME280;41070;50.360;18.742;2023-10-31T16:19:30;97321.36;;;13.59;93.70
55191;BME280;41070;50.360;18.742;2023-10-31T16:21:57;97328.58;;;13.57;93.87
55191;BME280;41070;50.360;18.742;2023-10-31T16:24:24;97336.50;;;13.57;93.84
55191;BME280;41070;50.360;18.742;2023-10-31T16:26:50;97332.45;;;13.54;93.71
55191;BME280;41070;50.360;18.742;2023-10-31T16:29:16;97333.08;;;13.51;93.71
55191;BME280;41070;50.360;18.742;2023-10-31T16:31:42;97339.00;;;13.48;93.66
55191;BME280;41070;50.360;18.742;2023-10-31T16:34:10;97340.02;;;13.46;93.65
55191;BME280;41070;50.360;18.742;2023-10-31T16:36:37;97348.84;;;13.45;93.70
55191;BME280;41070;50.360;18.742;2023-10-31T16:39:03;97349.16;;;13.44;93.78
55191;BME280;41070;50.360;18.742;2023-10-31T16:41:29;97352.92;;;13.44;93.93
55191;BME280;41070;50.360;18.742;2023-10-31T16:43:55;97353.02;;;13.39;93.70
55191;BME280;41070;50.360;18.742;2023-10-31T16:46:22;97365.32;;;13.35;93.38
55191;BME280;41070;50.360;18.742;2023-10-31T16:48:51;97372.84;;;13.29;93.32
55191;BME280;41070;50.360;18.742;2023-10-31T16:51:18;97377.84;;;13.24;93.26
55191;BME280;41070;50.360;18.742;2023-10-31T16:53:44;97385.14;;;13.18;92.95
55191;BME280;41070;50.360;18.742;2023-10-31T16:56:11;97393.36;;;13.09;92.55
55191;BME280;41070;50.360;18.742;2023-10-31T16:58:40;97407.80;;;13.01;92.41
55191;BME280;41070;50.360;18.742;2023-10-31T17:01:06;97410.89;;;12.93;92.85
55191;BME280;41070;50.360;18.742;2023-10-31T17:03:35;97421.02;;;12.87;93.27
55191;BME280;41070;50.360;18.742;2023-10-31T17:06:01;97429.00;;;12.82;93.38
55191;BME280;41070;50.360;18.742;2023-10-31T17:08:28;97439.05;;;12.78;93.42
55191;BME280;41070;50.360;18.742;2023-10-31T17:10:54;97447.95;;;12.75;93.53
55191;BME280;41070;50.360;18.742;2023-10-31T17:13:21;97455.92;;;12.71;93.55
55191;BME280;41070;50.360;18.742;2023-10-31T17:15:48;97467.89;;;12.68;93.59
55191;BME280;41070;50.360;18.742;2023-10-31T17:18:15;97473.79;;;12.62;93.27
55191;BME280;41070;50.360;18.742;2023-10-31T17:20:44;97481.90;;;12.58;93.63
55191;BME280;41070;50.360;18.742;2023-10-31T17:23:11;97486.58;;;12.54;93.69
55191;BME280;41070;50.360;18.742;2023-10-31T17:25:37;97496.39;;;12.51;93.47
55191;BME280;41070;50.360;18.742;2023-10-31T17:28:04;97503.89;;;12.45;93.46
55191;BME280;41070;50.360;18.742;2023-10-31T17:30:30;97508.02;;;12.41;93.79
55191;BME280;41070;50.360;18.742;2023-10-31T17:32:59;97512.30;;;12.38;93.65
55191;BME280;41070;50.360;18.742;2023-10-31T17:35:25;97523.64;;;12.34;93.51
55191;BME280;41070;50.360;18.742;2023-10-31T17:37:52;97527.38;;;12.29;93.40
55191;BME280;41070;50.360;18.742;2023-10-31T17:40:18;97533.34;;;12.22;93.29
55191;BME280;41070;50.360;18.742;2023-10-31T17:42:44;97536.15;;;12.17;93.64
55191;BME280;41070;50.360;18.742;2023-10-31T17:45:10;97534.68;;;12.13;93.54
55191;BME280;41070;50.360;18.742;2023-10-31T17:47:37;97535.11;;;12.08;93.47
55191;BME280;41070;50.360;18.742;2023-10-31T17:50:04;97536.17;;;12.04;93.77
55191;BME280;41070;50.360;18.742;2023-10-31T17:52:30;97542.60;;;12.01;93.94
55191;BME280;41070;50.360;18.742;2023-10-31T17:54:56;97542.27;;;11.98;93.94
55191;BME280;41070;50.360;18.742;2023-10-31T17:57:23;97547.54;;;11.92;93.82
55191;BME280;41070;50.360;18.742;2023-10-31T17:59:49;97550.70;;;11.88;94.21
55191;BME280;41070;50.360;18.742;2023-10-31T18:02:16;97554.05;;;11.83;94.15
55191;BME280;41070;50.360;18.742;2023-10-31T18:04:42;97562.84;;;11.79;94.58
55191;BME280;41070;50.360;18.742;2023-10-31T18:07:09;97561.36;;;11.75;94.39
55191;BME280;41070;50.360;18.742;2023-10-31T18:09:36;97566.36;;;11.69;94.48
55191;BME280;41070;50.360;18.742;2023-10-31T18:12:02;97566.11;;;11.61;94.65
55191;BME280;41070;50.360;18.742;2023-10-31T18:14:28;97571.12;;;11.56;94.77
55191;BME280;41070;50.360;18.742;2023-10-31T18:16:54;97570.15;;;11.49;94.70
55191;BME280;41070;50.360;18.742;2023-10-31T18:19:20;97575.09;;;11.44;95.00
55191;BME280;41070;50.360;18.742;2023-10-31T18:21:47;97580.50;;;11.41;95.12
55191;BME280;41070;50.360;18.742;2023-10-31T18:24:13;97580.88;;;11.39;95.43
55191;BME280;41070;50.360;18.742;2023-10-31T18:29:31;97584.89;;;11.35;95.08
55191;BME280;41070;50.360;18.742;2023-10-31T18:31:58;97583.34;;;11.32;95.29
55191;BME280;41070;50.360;18.742;2023-10-31T18:34:25;97587.00;;;11.30;95.08
55191;BME280;41070;50.360;18.742;2023-10-31T18:36:51;97595.83;;;11.25;94.84
55191;BME280;41070;50.360;18.742;2023-10-31T18:39:17;97607.19;;;11.19;95.09
55191;BME280;41070;50.360;18.742;2023-10-31T18:41:46;97614.03;;;11.15;95.20
55191;BME280;41070;50.360;18.742;2023-10-31T18:44:12;97615.83;;;11.12;95.32
55191;BME280;41070;50.360;18.742;2023-10-31T18:46:39;97617.65;;;11.09;95.29
55191;BME280;41070;50.360;18.742;2023-10-31T18:49:05;97618.53;;;11.04;95.07
55191;BME280;41070;50.360;18.742;2023-10-31T18:51:31;97615.39;;;10.97;95.37
55191;BME280;41070;50.360;18.742;2023-10-31T18:53:57;97609.02;;;10.93;95.44
55191;BME280;41070;50.360;18.742;2023-10-31T18:56:25;97605.92;;;10.90;94.99
55191;BME280;41070;50.360;18.742;2023-10-31T18:58:54;97604.40;;;10.83;95.27
55191;BME280;41070;50.360;18.742;2023-10-31T19:01:20;97605.75;;;10.79;95.38
55191;BME280;41070;50.360;18.742;2023-10-31T19:04:04;97610.52;;;10.76;95.17
55191;BME280;41070;50.360;18.742;2023-10-31T19:06:31;97619.66;;;10.72;95.17
55191;BME280;41070;50.360;18.742;2023-10-31T19:08:58;97617.92;;;10.68;95.32
55191;BME280;41070;50.360;18.742;2023-10-31T19:11:24;97618.30;;;10.67;95.48
55191;BME280;41070;50.360;18.742;2023-10-31T19:17:38;97621.98;;;10.66;95.58
55191;BME280;41070;50.360;18.742;2023-10-31T19:20:10;97620.08;;;10.69;95.77
55191;BME280;41070;50.360;18.742;2023-10-31T19:22:39;97617.89;;;10.72;95.73
55191;BME280;41070;50.360;18.742;2023-10-31T19:25:10;97622.56;;;10.72;95.60
55191;BME280;41070;50.360;18.742;2023-10-31T19:28:04;97619.98;;;10.74;95.57
55191;BME280;41070;50.360;18.742;2023-10-31T19:37:02;97630.80;;;10.84;96.06
55191;BME280;41070;50.360;18.742;2023-10-31T19:40:06;97636.55;;;10.86;95.63
55191;BME280;41070;50.360;18.742;2023-10-31T19:42:33;97639.15;;;10.87;95.79
55191;BME280;41070;50.360;18.742;2023-10-31T19:44:59;97637.91;;;10.85;95.71
55191;BME280;41070;50.360;18.742;2023-10-31T19:47:26;97637.14;;;10.83;95.41
55191;BME280;41070;50.360;18.742;2023-10-31T19:49:52;97644.14;;;10.80;95.51
55191;BME280;41070;50.360;18.742;2023-10-31T19:52:25;97649.60;;;10.77;95.31